Time;durP1;ratioP1;P1;durP2;ratioP2;P2;SDS_P1;SDS_P2;PMS_P1;PMS_P2;Temp;Humidity;BMP_temperature;BMP_pressure;BME280_temperature;BME280_humidity;BME280_pressure;Samples;Min_cycle;Max_cycle;Signal;HPM_P1;HPM_P2
2023/01/27 00:01:07;;;;;;;0.80;0.80;;;2.60;74.30;;;1.35;62.51;94871.16;5080006;28;20676;-38
2023/01/27 00:03:34;;;;;;;0.90;0.90;;;2.60;74.30;;;1.34;62.84;94873.91;5097215;28;20674;-39
2023/01/27 00:06:03;;;;;;;0.82;0.82;;;2.50;74.20;;;1.34;62.42;94871.31;5097534;28;20219;-35
2023/01/27 00:08:31;;;;;;;0.80;0.80;;;2.50;74.30;;;1.34;62.11;94872.13;5079705;28;20206;-40
2023/01/27 00:13:44;;;;;;;0.90;0.90;;;2.50;74.30;;;1.30;62.40;94878.50;5082483;28;20205;-32
2023/01/27 00:16:11;;;;;;;0.70;0.70;;;2.50;74.40;;;1.29;62.29;94871.72;5080068;28;20183;-38
2023/01/27 00:18:38;;;;;;;0.80;0.80;;;2.40;74.40;;;1.24;62.74;94866.94;5097275;28;20214;-37
2023/01/27 00:26:36;;;;;;;0.80;0.80;;;2.40;74.60;;;1.22;62.47;94860.28;5096885;28;20183;-40
2023/01/27 00:29:04;;;;;;;0.60;0.60;;;2.30;74.50;;;1.19;62.69;94863.16;5079191;28;20229;-38
2023/01/27 00:34:17;;;;;;;0.70;0.70;;;2.20;74.80;;;1.14;62.75;94855.81;5097014;28;20183;-32
2023/01/27 00:36:44;;;;;;;0.90;0.90;;;2.20;74.90;;;1.13;62.73;94868.88;5062817;28;20195;-38
2023/01/27 00:39:11;;;;;;;0.70;0.70;;;2.20;74.90;;;1.09;62.82;94855.41;5079073;28;20638;-38
2023/01/27 00:41:39;;;;;;;0.90;0.90;;;2.10;74.90;;;1.10;62.66;94859.63;5079652;28;20187;-38
2023/01/27 00:44:11;;;;;;;0.70;0.70;;;2.20;75.00;;;1.10;62.77;94857.03;5096859;28;20194;-39
2023/01/27 00:46:41;;;;;;;0.80;0.80;;;2.10;75.00;;;1.08;62.79;94857.16;5048151;28;20281;-33
2023/01/27 00:49:10;;;;;;;0.70;0.70;;;2.20;75.00;;;1.10;62.79;94862.19;5078943;28;20271;-33
2023/01/27 00:51:37;;;;;;;0.90;0.90;;;2.20;75.00;;;1.11;63.04;94868.97;5062226;28;20527;-32
2023/01/27 00:54:05;;;;;;;0.80;0.80;;;2.10;75.00;;;1.09;62.82;94873.47;5078683;28;20229;-37
2023/01/27 00:56:32;;;;;;;0.80;0.80;;;2.10;75.00;;;1.09;63.07;94869.13;5096563;28;20539;-33
2023/01/27 00:59:00;;;;;;;0.80;0.80;;;2.10;75.00;;;1.08;62.88;94864.09;5078915;28;20191;-34
2023/01/27 01:01:29;;;;;;;0.80;0.80;;;2.10;75.00;;;1.07;62.79;94868.44;5079081;28;20187;-40
2023/01/27 01:03:58;;;;;;;0.80;0.80;;;2.10;75.10;;;1.08;62.97;94867.47;5078253;28;20744;-40
2023/01/27 01:06:26;;;;;;;0.80;0.80;;;2.10;75.00;;;1.06;62.71;94864.25;5096363;28;20191;-40
2023/01/27 01:08:56;;;;;;;0.80;0.80;;;2.10;75.00;;;1.06;63.18;94869.41;5078429;28;20293;-40
2023/01/27 01:11:24;;;;;;;0.80;0.80;;;2.10;75.00;;;1.05;63.07;94866.94;5096242;28;20219;-40
2023/01/27 01:13:51;;;;;;;0.80;0.80;;;2.10;75.00;;;1.04;63.35;94866.13;5078406;28;20215;-40
2023/01/27 01:16:23;;;;;;;0.70;0.70;;;2.10;75.00;;;1.03;63.12;94859.31;5096330;28;20175;-40
2023/01/27 01:18:50;;;;;;;0.80;0.80;;;2.10;75.00;;;1.03;62.85;94861.91;5078239;28;20194;-40
2023/01/27 01:21:19;;;;;;;0.70;0.70;;;2.10;75.00;;;1.05;63.26;94861.75;5096270;28;20323;-41
2023/01/27 01:23:46;;;;;;;0.80;0.80;;;2.10;75.00;;;1.03;63.12;94859.31;5095880;28;20207;-40
2023/01/27 01:26:15;;;;;;;0.70;0.70;;;2.10;75.10;;;1.02;63.05;94862.06;5061433;28;20235;-41
2023/01/27 01:28:45;;;;;;;0.80;0.80;;;2.10;75.10;;;1.03;63.28;94866.28;5095890;28;20195;-40
2023/01/27 01:31:16;;;;;;;0.80;0.80;;;2.10;75.20;;;1.05;63.41;94872.94;5096147;28;20229;-40
2023/01/27 01:33:45;;;;;;;0.77;0.77;;;2.10;75.20;;;1.05;63.02;94864.34;5061599;28;20207;-40
2023/01/27 01:36:17;;;;;;;0.70;0.70;;;2.10;75.20;;;1.04;63.44;94860.97;5096024;28;20533;-40
2023/01/27 01:38:45;;;;;;;0.70;0.70;;;2.10;75.20;;;1.05;63.01;94865.19;5077325;28;20198;-40
2023/01/27 01:41:20;;;;;;;0.60;0.60;;;2.10;75.20;;;1.05;62.93;94862.59;5078154;28;20194;-40
2023/01/27 01:43:50;;;;;;;0.85;0.85;;;2.10;75.10;;;1.07;62.89;94870.22;5095736;28;20197;-40
2023/01/27 01:46:18;;;;;;;0.70;0.70;;;2.10;75.00;;;1.05;63.03;94866.94;5078419;28;20240;-40
2023/01/27 01:48:58;;;;;;;0.70;0.70;;;2.10;75.00;;;1.07;62.84;94867.63;5077647;28;20198;-40
2023/01/27 01:51:33;;;;;;;0.80;0.80;;;2.10;75.00;;;1.07;63.04;94865.84;5077708;28;20226;-41
2023/01/27 01:54:18;;;;;;;0.70;0.70;;;2.20;75.00;;;1.09;63.02;94870.91;5077421;28;20219;-40
2023/01/27 01:56:53;;;;;;;0.90;0.90;;;2.20;75.00;;;1.07;63.08;94863.25;5095770;28;20544;-40
2023/01/27 01:59:26;;;;;;;0.70;0.70;;;2.20;75.00;;;1.08;62.83;94862.31;5061046;28;20193;-40
2023/01/27 02:01:57;;;;;;;0.90;0.90;;;2.20;74.90;;;1.09;62.79;94858.78;5078514;28;20618;-40
2023/01/27 02:04:31;;;;;;;0.90;0.90;;;2.20;74.80;;;1.11;62.83;94861.22;5077662;28;20179;-40
2023/01/27 02:07:07;;;;;;;0.80;0.80;;;2.30;74.80;;;1.11;62.99;94863.81;5061166;28;20271;-40
2023/01/27 02:09:37;;;;;;;0.80;0.80;;;2.30;74.80;;;1.11;62.87;94856.06;5095521;28;20214;-40
2023/01/27 02:12:05;;;;;;;0.80;0.80;;;2.30;74.70;;;1.14;62.49;94855.00;5077318;28;20295;-40
2023/01/27 02:14:32;;;;;;;0.80;0.80;;;2.30;74.70;;;1.15;62.78;94856.59;5077476;28;20198;-40
2023/01/27 02:16:59;;;;;;;0.90;0.90;;;2.30;74.70;;;1.15;62.86;94862.59;5095216;28;20278;-40
2023/01/27 02:19:51;;;;;;;0.80;0.80;;;2.30;74.60;;;1.16;62.65;94863.41;5095414;28;20209;-41
2023/01/27 02:22:40;;;;;;;0.80;0.80;;;2.30;74.70;;;1.14;63.12;94855.81;5095075;28;20521;-40
2023/01/27 02:25:25;;;;;;;0.90;0.90;;;2.30;74.60;;;1.12;62.87;94855.13;5094945;28;20187;-41
2023/01/27 02:27:52;;;;;;;0.80;0.80;;;2.30;74.60;;;1.11;62.76;94856.91;5077643;28;20265;-40
2023/01/27 02:30:19;;;;;;;0.90;0.90;;;2.30;74.60;;;1.12;62.56;94855.13;5095006;28;20649;-40
2023/01/27 02:32:47;;;;;;;0.80;0.80;;;2.30;74.70;;;1.11;62.92;94853.47;5094924;28;20313;-40
2023/01/27 02:35:22;;;;;;;0.73;0.73;;;2.30;74.70;;;1.13;62.93;94848.19;5077196;28;20524;-40
2023/01/27 02:37:50;;;;;;;0.70;0.70;;;2.30;74.70;;;1.11;62.79;94850.91;5060569;28;20252;-39
2023/01/27 02:40:20;;;;;;;0.80;0.80;;;2.30;74.80;;;1.13;62.48;94855.94;5060475;28;20556;-40
2023/01/27 02:42:48;;;;;;;0.80;0.80;;;2.30;74.80;;;1.13;62.58;94853.38;5060635;28;20302;-40
2023/01/27 02:45:15;;;;;;;0.80;0.80;;;2.30;74.70;;;1.13;62.78;94851.59;5077076;28;20210;-40
2023/01/27 02:47:42;;;;;;;0.63;0.63;;;2.30;74.80;;;1.13;62.76;94859.34;5077314;28;20593;-40
2023/01/27 02:50:10;;;;;;;0.90;0.90;;;2.30;74.70;;;1.13;62.84;94861.91;5077820;28;20213;-40
2023/01/27 02:52:37;;;;;;;0.75;0.75;;;2.30;74.70;;;1.11;62.75;94856.91;5080975;28;20228;-40
2023/01/27 02:55:05;;;;;;;0.90;0.90;;;2.30;74.80;;;1.11;62.96;94850.91;5080845;28;20286;-40
2023/01/27 02:57:32;;;;;;;0.80;0.80;;;2.30;74.80;;;1.10;62.55;94855.25;5081471;28;20489;-40
2023/01/27 03:00:22;;;;;;;0.63;0.63;;;2.30;74.80;;;1.10;62.83;94855.25;5081085;28;20623;-41
2023/01/27 03:02:49;;;;;;;0.90;0.90;;;2.30;74.70;;;1.11;62.79;94848.31;5098856;28;20237;-40
2023/01/27 03:05:16;;;;;;;0.70;0.70;;;2.20;74.70;;;1.09;62.56;94851.03;5064462;28;20650;-41
2023/01/27 03:07:43;;;;;;;0.70;0.70;;;2.20;74.70;;;1.09;62.46;94853.63;5098715;28;20652;-40
2023/01/27 03:10:11;;;;;;;0.70;0.70;;;2.20;74.70;;;1.08;62.58;94846.81;5080691;28;20205;-40
2023/01/27 03:12:38;;;;;;;0.80;0.80;;;2.20;74.70;;;1.09;62.67;94845.88;5080582;28;20246;-39
2023/01/27 03:20:39;;;;;;;0.70;0.70;;;2.20;74.50;;;1.06;62.39;94842.75;5080565;28;20187;-40
2023/01/27 03:23:07;;;;;;;0.80;0.80;;;2.20;74.60;;;1.07;62.58;94844.38;5098507;28;20642;-40
2023/01/27 03:25:39;;;;;;;0.80;0.80;;;2.20;74.50;;;1.08;62.26;94851.19;5080228;28;20677;-40
2023/01/27 03:28:06;;;;;;;0.70;0.70;;;2.20;74.50;;;1.07;62.39;94841.78;5098613;28;20175;-40
2023/01/27 03:31:07;;;;;;;0.70;0.70;;;2.30;74.50;;;1.10;62.51;94846.72;5073511;28;20281;-40
2023/01/27 03:33:42;;;;;;;0.80;0.80;;;2.30;74.40;;;1.09;62.22;94845.88;5064868;28;20211;-40
2023/01/27 03:47:29;;;;;;;0.80;0.80;;;2.30;74.30;;;1.00;62.43;94835.53;5098007;28;20183;-41
2023/01/27 03:49:56;;;;;;;0.90;0.90;;;2.20;74.30;;;1.02;62.30;94846.56;5080049;28;20190;-40
2023/01/27 03:52:23;;;;;;;0.70;0.70;;;2.20;74.30;;;1.01;62.45;94842.34;5080078;28;20646;-40
2023/01/27 03:54:50;;;;;;;0.90;0.90;;;2.20;74.40;;;1.00;62.56;94838.13;5097838;28;20263;-40
2023/01/27 03:57:17;;;;;;;0.80;0.80;;;2.30;74.60;;;0.99;62.83;94844.22;5097973;28;20194;-40
2023/01/27 03:59:44;;;;;;;0.70;0.70;;;2.20;74.60;;;0.96;63.05;94837.56;5080102;28;20199;-40
2023/01/27 04:07:43;;;;;;;0.80;0.80;;;2.20;74.80;;;0.87;63.37;94836.63;5083107;28;20186;-40
2023/01/27 04:10:10;;;;;;;0.90;0.90;;;2.10;74.90;;;0.84;63.59;94831.69;5097436;28;20194;-40
2023/01/27 04:12:37;;;;;;;0.80;0.80;;;2.10;74.80;;;0.82;63.43;94832.78;5097346;28;20725;-40
2023/01/27 04:15:05;;;;;;;0.70;0.70;;;2.10;74.90;;;0.82;63.55;94835.38;5079410;28;20646;-40
2023/01/27 04:17:37;;;;;;;0.80;0.80;;;2.10;75.00;;;0.84;63.42;94831.69;5097456;28;20248;-41
2023/01/27 04:20:05;;;;;;;0.70;0.70;;;2.10;75.00;;;0.83;63.49;94830.09;5079489;28;20195;-40
2023/01/27 04:22:32;;;;;;;0.70;0.70;;;2.10;75.00;;;0.83;63.64;94827.50;5097222;28;20191;-40
2023/01/27 04:24:59;;;;;;;0.70;0.70;;;2.10;75.00;;;0.83;63.38;94824.94;5096999;28;20670;-40
2023/01/27 04:27:26;;;;;;;0.70;0.70;;;2.00;75.00;;;0.84;63.48;94829.13;5079481;28;20578;-39
2023/01/27 04:29:53;;;;;;;0.80;0.80;;;2.00;75.30;;;0.84;63.52;94828.31;5097258;28;20266;-40
2023/01/27 04:32:20;;;;;;;0.70;0.70;;;2.00;75.00;;;0.86;63.49;94832.41;5096918;28;20186;-40
2023/01/27 04:34:48;;;;;;;0.80;0.80;;;2.10;75.20;;;0.85;63.54;94827.38;5097056;28;20203;-40
2023/01/27 04:37:15;;;;;;;0.70;0.70;;;2.00;75.20;;;0.86;63.35;94827.22;5096909;28;20653;-40
2023/01/27 04:39:44;;;;;;;0.77;0.77;;;2.00;75.10;;;0.89;63.53;94823.56;5096876;28;20201;-39
2023/01/27 04:42:11;;;;;;;0.70;0.70;;;2.00;75.20;;;0.88;63.68;94827.09;5096826;28;20201;-40
2023/01/27 04:44:39;;;;;;;0.80;0.80;;;2.00;75.20;;;0.87;63.61;94828.06;5096856;28;20187;-40
2023/01/27 04:47:06;;;;;;;0.70;0.70;;;2.00;75.30;;;0.90;63.35;94835.53;5079151;28;20199;-40
2023/01/27 04:49:33;;;;;;;0.80;0.80;;;2.00;75.30;;;0.91;63.73;94834.56;5079059;28;20190;-41
2023/01/27 04:52:00;;;;;;;0.80;0.80;;;2.10;75.30;;;0.91;63.52;94835.38;5079080;28;20198;-41
2023/01/27 04:54:27;;;;;;;0.80;0.80;;;2.00;75.20;;;0.90;63.38;94830.34;5096809;28;20219;-41
2023/01/27 04:57:02;;;;;;;0.70;0.70;;;2.00;75.30;;;0.89;63.88;94834.72;5096428;28;20194;-40
2023/01/27 04:59:29;;;;;;;0.70;0.70;;;2.00;75.30;;;0.91;63.56;94830.22;5096545;28;20183;-40
2023/01/27 05:01:56;;;;;;;0.80;0.80;;;2.10;75.40;;;0.92;63.73;94824.09;5078830;28;20712;-40
2023/01/27 05:04:25;;;;;;;0.80;0.80;;;2.00;75.40;;;0.91;63.75;94821.66;5079120;28;20593;-40
2023/01/27 05:06:53;;;;;;;0.80;0.80;;;2.00;75.50;;;0.89;63.86;94811.47;5096193;28;20205;-39
2023/01/27 05:09:20;;;;;;;0.70;0.70;;;2.00;75.60;;;0.90;64.18;94818.25;5096276;28;20203;-40
2023/01/27 05:11:47;;;;;;;0.75;0.75;;;2.00;75.60;;;0.90;63.97;94820.84;5078408;28;20221;-41
2023/01/27 05:14:14;;;;;;;0.80;0.80;;;2.00;75.70;;;0.89;63.96;94826.97;5078966;28;20276;-40
2023/01/27 05:16:41;;;;;;;0.80;0.80;;;2.00;75.80;;;0.88;64.43;94825.34;5078588;28;20241;-40
2023/01/27 05:19:08;;;;;;;0.80;0.80;;;1.90;75.90;;;0.89;64.12;94831.31;5096077;28;20234;-41
2023/01/27 05:21:36;;;;;;;0.70;0.70;;;1.90;76.00;;;0.88;64.35;94829.66;5096095;28;20198;-40
2023/01/27 05:24:03;;;;;;;0.80;0.80;;;1.90;76.10;;;0.89;64.05;94836.47;5095985;28;20273;-40
2023/01/27 05:26:30;;;;;;;0.90;0.90;;;1.90;76.10;;;0.90;64.53;94843.28;5095784;28;20209;-40
2023/01/27 05:28:58;;;;;;;0.90;0.90;;;1.90;76.10;;;0.90;64.39;94844.06;5095953;28;20198;-39
2023/01/27 05:31:30;;;;;;;0.80;0.80;;;1.90;76.20;;;0.92;64.42;94844.75;5095900;28;20191;-40
2023/01/27 05:33:59;;;;;;;0.80;0.80;;;1.90;76.30;;;0.90;64.65;94843.28;5096034;28;20660;-40
2023/01/27 05:36:28;;;;;;;0.90;0.90;;;1.90;77.30;;;0.91;64.71;94847.50;5077728;28;20198;-40
2023/01/27 05:38:57;;;;;;;0.80;0.80;;;1.80;76.40;;;0.90;64.75;94849.25;5095713;28;20182;-41
2023/01/27 05:41:24;;;;;;;0.70;0.70;;;1.80;76.50;;;0.91;64.50;94850.88;5095760;28;20194;-40
2023/01/27 05:43:54;;;;;;;0.80;0.80;;;1.80;76.60;;;0.91;64.65;94845.72;5061749;28;20202;-40
2023/01/27 05:46:28;;;;;;;0.80;0.80;;;1.90;76.50;;;0.92;64.66;94839.59;5095597;28;20205;-40
2023/01/27 05:48:59;;;;;;;0.80;0.80;;;1.90;76.50;;;0.91;64.67;94847.50;5078080;28;20179;-39
2023/01/27 05:51:31;;;;;;;0.70;0.70;;;1.90;76.50;;;0.93;64.72;94853.34;5095444;28;20215;-40
2023/01/27 05:53:58;;;;;;;0.80;0.80;;;1.90;76.40;;;0.94;64.32;94850.63;5095507;28;20199;-40
2023/01/27 05:56:25;;;;;;;0.70;0.70;;;2.00;76.40;;;0.98;64.38;94852.91;5095612;28;20236;-41
2023/01/27 05:58:54;;;;;;;0.70;0.70;;;2.00;76.30;;;0.98;64.40;94856.34;5077959;28;20182;-41
2023/01/27 06:01:25;;;;;;;0.70;0.70;;;1.90;76.30;;;1.01;64.18;94861.22;5095652;28;20199;-40
2023/01/27 06:03:52;;;;;;;0.80;0.80;;;2.00;76.30;;;1.01;64.30;94856.06;5095229;28;20244;-41
2023/01/27 06:06:23;;;;;;;0.90;0.90;;;2.00;76.30;;;1.02;64.44;94855.09;5095184;28;20356;-40
2023/01/27 06:08:50;;;;;;;0.80;0.80;;;2.00;76.20;;;1.04;64.33;94850.63;5095366;28;20187;-41
2023/01/27 06:11:20;;;;;;;0.70;0.70;;;2.10;76.30;;;1.04;64.04;94854.97;5077661;28;20191;-40
2023/01/27 06:13:47;;;;;;;0.80;0.80;;;2.10;76.10;;;1.03;64.01;94850.78;5095540;28;20642;-40
2023/01/27 06:16:17;;;;;;;0.80;0.80;;;2.10;75.90;;;1.04;64.00;94850.63;5095027;28;20197;-40
2023/01/27 06:18:46;;;;;;;0.80;0.80;;;2.10;75.90;;;1.06;63.73;94855.66;5077637;28;20527;-40
2023/01/27 06:21:15;;;;;;;0.80;0.80;;;2.10;75.90;;;1.04;63.68;94860.97;5095141;28;20191;-41
2023/01/27 06:23:42;;;;;;;0.70;0.70;;;2.10;75.80;;;1.02;63.78;94856.88;5077234;28;20195;-40
2023/01/27 06:26:16;;;;;;;0.80;0.80;;;2.10;75.80;;;1.01;63.73;94860.41;5094587;28;20642;-40
2023/01/27 06:28:44;;;;;;;0.80;0.80;;;2.10;76.00;;;1.00;64.16;94867.34;5077831;28;20274;-40
2023/01/27 06:31:14;;;;;;;0.80;0.80;;;2.00;76.00;;;1.01;63.77;94874.13;5077825;28;20202;-40
2023/01/27 06:33:43;;;;;;;0.80;0.80;;;2.00;76.00;;;1.03;64.20;94866.28;5094977;28;20214;-41
2023/01/27 06:36:17;;;;;;;0.90;0.90;;;2.10;76.00;;;1.04;63.97;94865.28;5094868;28;20618;-40
2023/01/27 06:38:45;;;;;;;0.88;0.88;;;2.10;76.00;;;1.04;63.98;94866.13;5077544;28;20185;-40
2023/01/27 06:41:13;;;;;;;0.90;0.90;;;2.10;76.00;;;1.06;64.12;94866.00;5094984;28;20230;-40
2023/01/27 06:43:40;;;;;;;0.70;0.70;;;2.10;75.90;;;1.06;63.80;94866.00;5077306;28;20198;-40
2023/01/27 06:46:07;;;;;;;0.75;0.75;;;2.10;75.90;;;1.07;63.94;94865.03;5094759;28;20591;-40
2023/01/27 06:48:36;;;;;;;0.70;0.70;;;2.20;76.00;;;1.08;63.95;94870.06;5094801;28;20630;-40
2023/01/27 06:51:04;;;;;;;0.90;0.90;;;2.10;75.90;;;1.08;64.06;94872.66;5076940;28;20243;-41
2023/01/27 06:53:31;;;;;;;0.70;0.70;;;2.10;75.90;;;1.09;64.03;94876.88;5094734;28;20211;-40
2023/01/27 06:56:00;;;;;;;0.70;0.70;;;2.10;76.00;;;1.09;64.28;94878.66;5077080;28;20199;-40
2023/01/27 06:58:27;;;;;;;0.80;0.80;;;2.10;76.00;;;1.07;63.78;94867.63;5077514;28;20187;-40
2023/01/27 07:00:55;;;;;;;0.70;0.70;;;2.00;76.10;;;1.07;64.34;94881.34;5077249;28;20191;-40
2023/01/27 07:03:23;;;;;;;0.80;0.80;;;1.90;76.30;;;1.05;64.20;94883.25;5076763;28;20337;-40
2023/01/27 07:05:52;;;;;;;0.70;0.70;;;1.90;76.50;;;1.06;64.32;94884.06;5094511;28;20205;-40
2023/01/27 07:08:19;;;;;;;0.77;0.77;;;1.80;76.50;;;1.05;64.12;94885.84;5094862;28;20202;-40
2023/01/27 07:10:46;;;;;;;0.70;0.70;;;1.90;76.60;;;1.07;64.36;94878.75;5094621;28;20202;-40
2023/01/27 07:13:14;;;;;;;0.70;0.70;;;1.90;76.60;;;1.08;64.03;94885.56;5094560;28;20195;-40
2023/01/27 07:15:42;;;;;;;0.80;0.80;;;1.90;76.50;;;1.09;64.20;94886.41;5094541;28;20630;-40
2023/01/27 07:18:12;;;;;;;0.80;0.80;;;1.90;76.50;;;1.11;63.92;94884.47;5094742;28;20585;-41
2023/01/27 07:20:40;;;;;;;0.80;0.80;;;1.90;76.50;;;1.10;64.20;94875.13;5094767;28;20232;-40
2023/01/27 07:23:09;;;;;;;0.90;0.90;;;1.90;76.40;;;1.09;64.07;94874.28;5094783;28;20294;-41
2023/01/27 07:25:36;;;;;;;0.70;0.70;;;1.90;76.50;;;1.11;64.02;94885.31;5076892;28;20624;-40
2023/01/27 07:28:04;;;;;;;0.70;0.70;;;1.90;76.50;;;1.15;64.29;94885.03;5076829;28;20195;-41
2023/01/27 07:30:32;;;;;;;0.73;0.73;;;2.00;76.60;;;1.19;64.16;94884.63;5094720;28;20536;-40
2023/01/27 07:33:10;;;;;;;0.90;0.90;;;2.00;76.50;;;1.23;64.19;94893.75;5094539;28;20202;-40
2023/01/27 07:35:39;;;;;;;0.88;0.88;;;2.00;76.50;;;1.27;64.21;94891.72;5077085;28;20203;-40
2023/01/27 07:38:07;;;;;;;0.70;0.70;;;2.00;76.50;;;1.31;63.91;94892.25;5096998;28;20523;-40
2023/01/27 07:40:35;;;;;;;0.70;0.70;;;2.00;76.50;;;1.30;64.07;94896.59;5080736;28;20206;-40
2023/01/27 07:43:02;;;;;;;0.80;0.80;;;2.00;76.50;;;1.32;63.69;94896.47;5098106;28;20198;-40
2023/01/27 07:45:32;;;;;;;0.70;0.70;;;2.00;76.60;;;1.33;63.92;94898.94;5064102;28;20194;-41
2023/01/27 07:48:01;;;;;;;0.70;0.70;;;2.00;76.60;;;1.37;63.68;94899.47;5097712;28;20191;-40
2023/01/27 07:50:29;;;;;;;0.80;0.80;;;2.00;76.60;;;1.42;63.79;94905.06;5097880;28;20239;-40
2023/01/27 07:53:01;;;;;;;0.80;0.80;;;2.10;76.70;;;1.43;63.87;94906.69;5097996;28;20293;-40
2023/01/27 07:55:31;;;;;;;0.80;0.80;;;2.10;76.70;;;1.49;64.03;94898.38;5097741;28;20198;-40
2023/01/27 07:57:58;;;;;;;0.80;0.80;;;2.20;76.60;;;1.52;63.77;94892.94;5080049;28;20597;-40
2023/01/27 08:00:27;;;;;;;0.80;0.80;;;2.20;76.50;;;1.53;63.41;94893.75;5097672;28;20521;-40
2023/01/27 08:02:56;;;;;;;0.75;0.75;;;2.30;76.40;;;1.56;63.72;94904.66;5097541;28;20234;-40
2023/01/27 08:05:24;;;;;;;0.80;0.80;;;2.30;76.30;;;1.59;63.41;94906.13;5097845;28;20194;-40
2023/01/27 08:07:53;;;;;;;0.80;0.80;;;2.40;76.30;;;1.60;63.41;94894.84;5063272;28;20206;-40
2023/01/27 08:10:23;;;;;;;0.70;0.70;;;2.40;76.20;;;1.61;63.24;94888.72;5097762;28;20187;-40
2023/01/27 08:12:50;;;;;;;0.80;0.80;;;2.40;76.10;;;1.61;63.44;94899.03;5079636;28;20377;-40
2023/01/27 08:15:17;;;;;;;0.80;0.80;;;2.40;76.20;;;1.63;63.28;94904.91;5097219;28;20534;-40
2023/01/27 08:17:55;;;;;;;0.70;0.70;;;2.40;76.20;;;1.65;63.25;94889.25;5097276;28;20551;-40
2023/01/27 08:20:25;;;;;;;0.80;0.80;;;2.40;76.20;;;1.68;63.26;94887.22;5097279;28;20678;-40
2023/01/27 08:22:52;;;;;;;0.70;0.70;;;2.40;76.20;;;1.70;63.21;94887.91;5063714;28;20221;-41
2023/01/27 08:25:20;;;;;;;0.88;0.88;;;2.40;76.10;;;1.73;63.37;94894.56;5063016;28;20217;-41
2023/01/27 08:27:52;;;;;;;0.80;0.80;;;2.50;76.10;;;1.76;62.90;94899.47;5097255;28;20233;-40
2023/01/27 08:30:20;;;;;;;0.80;0.80;;;2.50;76.10;;;1.78;63.09;94894.94;5097141;28;20486;-40
2023/01/27 08:32:48;;;;;;;0.70;0.70;;;2.60;76.10;;;1.79;62.99;94895.78;5097076;28;20202;-40
2023/01/27 08:35:15;;;;;;;0.70;0.70;;;2.60;75.90;;;1.79;63.46;94896.59;5096974;28;20211;-40
2023/01/27 08:37:42;;;;;;;0.60;0.60;;;2.60;75.80;;;1.80;63.27;94895.63;5096843;28;20261;-40
2023/01/27 08:40:10;;;;;;;0.70;0.70;;;2.60;76.00;;;1.84;63.42;94898.75;5096922;28;20193;-41
2023/01/27 08:42:38;;;;;;;0.82;0.82;;;2.60;76.00;;;1.88;63.18;94892.34;5097128;28;20195;-40
2023/01/27 08:45:06;;;;;;;0.73;0.73;;;2.70;76.00;;;1.89;63.07;94892.22;5079531;28;20191;-40
2023/01/27 08:47:33;;;;;;;0.80;0.80;;;2.60;76.00;;;1.94;62.66;94902.13;5096435;28;20252;-40
2023/01/27 08:50:00;;;;;;;0.90;0.90;;;2.60;76.10;;;1.94;63.17;94909.91;5078973;28;20629;-40
2023/01/27 08:52:29;;;;;;;0.90;0.90;;;2.60;76.20;;;1.94;63.14;94902.13;5079167;28;20195;-40
2023/01/27 08:54:57;;;;;;;0.85;0.85;;;2.60;76.20;;;1.92;63.21;94897.13;5096469;28;20217;-40
2023/01/27 08:57:24;;;;;;;0.80;0.80;;;2.70;76.10;;;1.96;62.94;94902.81;5096403;28;20605;-40
2023/01/27 08:59:51;;;;;;;0.80;0.80;;;2.70;76.20;;;2.01;63.38;94903.22;5078892;28;20209;-40
2023/01/27 09:02:21;;;;;;;0.90;0.90;;;2.70;76.10;;;2.03;63.14;94897.94;5096559;28;20305;-40
2023/01/27 09:04:48;;;;;;;0.80;0.80;;;2.70;76.20;;;2.07;62.92;94899.28;5096898;28;20175;-41
2023/01/27 09:07:16;;;;;;;0.80;0.80;;;2.70;76.20;;;2.12;63.38;94907.41;5096518;28;20206;-41
2023/01/27 09:09:46;;;;;;;0.70;0.70;;;2.80;76.30;;;2.21;63.32;94914.34;5079130;28;20187;-40
2023/01/27 09:12:14;;;;;;;0.70;0.70;;;2.90;76.30;;;2.26;62.94;94913.94;5079118;28;20175;-40
2023/01/27 09:14:41;;;;;;;0.80;0.80;;;2.90;75.90;;;2.27;62.63;94918.16;5096452;28;20223;-40
2023/01/27 09:17:08;;;;;;;0.77;0.77;;;2.90;76.80;;;2.31;62.81;94926.47;5096645;28;20213;-40
2023/01/27 09:19:35;;;;;;;0.85;0.85;;;2.90;76.00;;;2.35;62.78;94928.59;5096441;28;20209;-39
2023/01/27 09:22:04;;;;;;;0.80;0.80;;;3.00;75.80;;;2.35;62.18;94917.47;5096416;28;20591;-41
2023/01/27 09:24:31;;;;;;;0.70;0.70;;;2.90;75.80;;;2.32;62.15;94930.66;5096428;28;20725;-41
2023/01/27 09:26:57;;;;;;;0.85;0.85;;;2.90;75.80;;;2.31;62.33;94923.88;5094608;28;20209;-41
2023/01/27 09:29:28;;;;;;;0.70;0.70;;;2.90;75.90;;;2.30;62.44;94927.41;5076193;28;20196;-41
2023/01/27 09:31:55;;;;;;;0.80;0.80;;;2.90;75.80;;;2.30;62.51;94930.00;5076305;28;20230;-39
2023/01/27 09:34:22;;;;;;;0.80;0.80;;;2.90;75.90;;;2.26;62.29;94923.47;5058562;28;20264;-39
2023/01/27 09:36:59;;;;;;;0.80;0.80;;;3.00;75.70;;;2.25;62.28;94925.25;5076214;28;20525;-39
2023/01/27 09:39:26;;;;;;;0.80;0.80;;;2.90;75.50;;;2.27;62.77;94931.09;5076065;28;20575;-39
2023/01/27 09:42:12;;;;;;;0.80;0.80;;;3.00;75.80;;;2.29;62.39;94931.75;5058260;28;20692;-39
2023/01/27 09:44:49;;;;;;;0.80;0.80;;;3.00;75.70;;;2.28;62.52;94934.50;5075523;28;20270;-38
2023/01/27 09:47:39;;;;;;;0.80;0.80;;;3.00;75.80;;;2.27;62.77;94940.63;5075372;28;20274;-39
2023/01/27 09:50:42;;;;;;;0.70;0.70;;;3.00;75.80;;;2.27;62.69;94935.44;5075896;28;20207;-40
2023/01/27 09:53:46;;;;;;;0.70;0.70;;;3.00;75.70;;;2.30;62.63;94940.34;5058302;28;20241;-40
2023/01/27 09:56:34;;;;;;;0.70;0.70;;;3.00;75.70;;;2.34;62.69;94928.75;5041803;28;20187;-41
2023/01/27 09:59:50;;;;;;;0.73;0.73;;;3.00;75.80;;;2.36;62.62;94937.22;5058638;28;20265;-40
2023/01/27 10:02:33;;;;;;;0.80;0.80;;;3.00;75.80;;;2.34;62.42;94937.31;5075661;28;20576;-42
2023/01/27 10:05:20;;;;;;;0.70;0.70;;;3.10;75.60;;;2.34;62.53;94931.34;5074551;28;20191;-40
2023/01/27 10:08:29;;;;;;;0.80;0.80;;;3.10;75.60;;;2.37;62.57;94939.66;5075006;28;20190;-40
2023/01/27 10:11:17;;;;;;;0.80;0.80;;;3.10;75.50;;;2.41;62.32;94929.84;5052031;28;20268;-40
2023/01/27 10:14:05;;;;;;;0.82;0.82;;;3.10;75.40;;;2.44;62.27;94932.16;5057652;28;20595;-40
2023/01/27 10:17:02;;;;;;;0.90;0.90;;;3.20;75.50;;;2.51;62.29;94934.97;5075267;28;20180;-40
2023/01/27 10:20:01;;;;;;;0.60;0.60;;;3.20;75.40;;;2.58;62.03;94933.47;5057577;28;20179;-40
2023/01/27 10:23:01;;;;;;;0.80;0.80;;;3.30;75.40;;;2.62;61.73;94934.00;5054735;28;20281;-41
2023/01/27 10:26:14;;;;;;;0.70;0.70;;;3.30;75.80;;;2.67;62.04;94930.03;5074008;28;20187;-40
2023/01/27 10:28:50;;;;;;;0.80;0.80;;;3.40;76.10;;;2.72;61.73;94935.59;5071972;28;20302;-40
2023/01/27 10:31:26;;;;;;;0.70;0.70;;;3.40;75.10;;;2.78;61.92;94939.34;5056152;28;20189;-40
2023/01/27 10:34:00;;;;;;;0.70;0.70;;;3.50;75.20;;;2.83;62.03;94937.19;5074283;28;20184;-41
2023/01/27 10:36:39;;;;;;;0.70;0.70;;;3.60;76.00;;;2.90;61.77;94934.00;5057995;28;20625;-40
2023/01/27 10:39:29;;;;;;;0.70;0.70;;;3.70;75.10;;;2.96;61.98;94930.84;5074555;28;20226;-40
2023/01/27 10:42:42;;;;;;;0.80;0.80;;;3.80;75.10;;;2.98;61.72;94921.13;5057560;28;20634;-40
2023/01/27 10:45:38;;;;;;;0.80;0.80;;;3.90;74.90;;;2.98;61.52;94919.38;5074677;28;20635;-40
2023/01/27 10:48:17;;;;;;;0.70;0.70;;;3.90;74.10;;;3.02;61.46;94923.28;5058647;28;20278;-41
2023/01/27 10:50:59;;;;;;;0.63;0.63;;;4.00;74.30;;;3.08;61.51;94919.31;5074705;28;20178;-41
2023/01/27 10:53:50;;;;;;;0.80;0.80;;;4.00;74.40;;;3.13;61.65;94919.69;5074780;28;20207;-40
2023/01/27 10:56:44;;;;;;;0.70;0.70;;;4.10;74.60;;;3.16;61.27;94921.16;5074537;28;20203;-40
2023/01/27 10:59:43;;;;;;;0.80;0.80;;;4.10;74.10;;;3.19;61.24;94919.09;5056974;28;20257;-40
2023/01/27 11:03:04;;;;;;;0.70;0.70;;;4.20;74.10;;;3.22;61.06;94918.00;5074855;28;20223;-40
2023/01/27 11:05:41;;;;;;;0.80;0.80;;;4.20;74.00;;;3.26;60.93;94908.97;5057277;28;20187;-40
2023/01/27 11:08:17;;;;;;;0.70;0.70;;;4.10;73.90;;;3.30;60.96;94912.09;5040998;28;20273;-41
2023/01/27 11:13:37;;;;;;;0.80;0.80;;;4.10;73.60;;;3.26;60.43;94910.75;5050466;28;20183;-40
2023/01/27 11:16:13;;;;;;;0.80;0.80;;;4.10;73.90;;;3.22;60.33;94917.19;5044483;28;20296;-40
2023/01/27 11:18:44;;;;;;;0.80;0.80;;;4.10;73.70;;;3.19;59.93;94913.13;5060747;28;20650;-39
2023/01/27 11:21:25;;;;;;;0.70;0.70;;;4.10;73.50;;;3.12;60.03;94909.47;5078266;28;20184;-40
2023/01/27 11:23:55;;;;;;;0.80;0.80;;;4.00;73.50;;;3.09;60.16;94910.59;5060837;28;20250;-40
2023/01/27 11:26:29;;;;;;;0.90;0.90;;;4.00;73.50;;;3.06;60.08;94912.66;5061120;28;20183;-40
2023/01/27 11:29:17;;;;;;;0.70;0.70;;;4.00;73.40;;;3.00;60.20;94909.69;5077952;28;20182;-41